< < Back
Terminal Aerodrome Forecast


Current Version              Previous Versions:   1  2  3  4  5  6  7  8  9  

Terminal Aerodrome Forecast

622
FTUS42 KCAE 251500 AAA
TAFCAE
TAF AMD
KCAE 251529Z 2515/2612 15008KT P6SM SCT025 BKN035 WS020/22030KT
     FM251700 16008KT P6SM BKN005 WS020/22030KT
     FM260300 24009KT P6SM FEW050 BKN150=

Latest METAR

028
SAUS80 KWBC 251600
MTRCAE
METAR KCAE 251556Z 18009KT 10SM SCT012 BKN023 OVC038 19/17 A2983 RMK AO2
RAE05 SLP098 P0000 T01940167


USA.gov is the U.S. government's official web portal to all federal, state and local government web resources and services.